sensor_id;sensor_type;location;lat;lon;timestamp;pressure;altitude;pressure_sealevel;temperature;humidity
33496;BME280;19836;55.812;37.560;2022-08-19T00:00:30;100187.03;;;23.99;46.80
33496;BME280;19836;55.812;37.560;2022-08-19T00:02:55;100188.28;;;23.95;46.80
33496;BME280;19836;55.812;37.560;2022-08-19T00:05:22;100192.97;;;23.93;46.88
33496;BME280;19836;55.812;37.560;2022-08-19T00:07:48;100196.72;;;23.92;46.97
33496;BME280;19836;55.812;37.560;2022-08-19T00:10:15;100197.06;;;23.88;46.99
33496;BME280;19836;55.812;37.560;2022-08-19T00:12:42;100191.91;;;23.83;47.03
33496;BME280;19836;55.812;37.560;2022-08-19T00:15:10;100196.88;;;23.78;47.22
33496;BME280;19836;55.812;37.560;2022-08-19T00:17:44;100200.81;;;23.74;47.51
33496;BME280;19836;55.812;37.560;2022-08-19T00:20:14;100198.34;;;23.71;47.57
33496;BME280;19836;55.812;37.560;2022-08-19T00:22:43;100194.09;;;23.67;47.46
33496;BME280;19836;55.812;37.560;2022-08-19T00:25:10;100198.94;;;23.64;47.43
33496;BME280;19836;55.812;37.560;2022-08-19T00:27:36;100196.41;;;23.61;47.80
33496;BME280;19836;55.812;37.560;2022-08-19T00:30:04;100205.72;;;23.58;47.54
33496;BME280;19836;55.812;37.560;2022-08-19T00:32:30;100197.53;;;23.58;47.58
33496;BME280;19836;55.812;37.560;2022-08-19T00:34:56;100205.97;;;23.55;47.52
33496;BME280;19836;55.812;37.560;2022-08-19T00:37:23;100203.94;;;23.46;47.63
33496;BME280;19836;55.812;37.560;2022-08-19T00:39:51;100203.94;;;23.46;47.54
33496;BME280;19836;55.812;37.560;2022-08-19T00:42:19;100207.66;;;23.45;47.59
33496;BME280;19836;55.812;37.560;2022-08-19T00:44:46;100210.50;;;23.44;47.60
33496;BME280;19836;55.812;37.560;2022-08-19T00:47:13;100204.84;;;23.34;47.72
33496;BME280;19836;55.812;37.560;2022-08-19T00:49:54;100212.75;;;23.26;47.78
33496;BME280;19836;55.812;37.560;2022-08-19T00:52:29;100212.97;;;23.23;47.75
33496;BME280;19836;55.812;37.560;2022-08-19T00:54:58;100218.22;;;23.26;47.89
33496;BME280;19836;55.812;37.560;2022-08-19T00:57:28;100218.44;;;23.23;47.72
33496;BME280;19836;55.812;37.560;2022-08-19T00:59:56;100211.22;;;23.22;47.70
33496;BME280;19836;55.812;37.560;2022-08-19T01:02:24;100212.22;;;23.21;47.90
33496;BME280;19836;55.812;37.560;2022-08-19T01:04:50;100216.69;;;23.22;47.63
33496;BME280;19836;55.812;37.560;2022-08-19T01:07:17;100221.28;;;23.22;47.55
33496;BME280;19836;55.812;37.560;2022-08-19T01:09:43;100227.06;;;23.17;47.53
33496;BME280;19836;55.812;37.560;2022-08-19T01:12:09;100232.66;;;23.16;47.51
33496;BME280;19836;55.812;37.560;2022-08-19T01:14:37;100232.22;;;23.09;47.78
33496;BME280;19836;55.812;37.560;2022-08-19T01:17:05;100239.91;;;23.04;47.89
33496;BME280;19836;55.812;37.560;2022-08-19T01:19:36;100240.22;;;23.00;47.83
33496;BME280;19836;55.812;37.560;2022-08-19T01:22:14;100248.53;;;22.98;47.94
33496;BME280;19836;55.812;37.560;2022-08-19T01:24:42;100245.16;;;22.95;48.00
33496;BME280;19836;55.812;37.560;2022-08-19T01:27:08;100240.91;;;22.91;48.32
33496;BME280;19836;55.812;37.560;2022-08-19T01:29:39;100240.50;;;22.84;48.30
33496;BME280;19836;55.812;37.560;2022-08-19T01:32:07;100246.91;;;22.83;48.51
33496;BME280;19836;55.812;37.560;2022-08-19T01:34:34;100239.94;;;22.79;48.53
33496;BME280;19836;55.812;37.560;2022-08-19T01:37:00;100246.63;;;22.75;48.71
33496;BME280;19836;55.812;37.560;2022-08-19T01:39:30;100245.41;;;22.79;48.56
33496;BME280;19836;55.812;37.560;2022-08-19T01:41:56;100238.72;;;22.71;48.53
33496;BME280;19836;55.812;37.560;2022-08-19T01:44:22;100235.69;;;22.63;48.67
33496;BME280;19836;55.812;37.560;2022-08-19T01:46:50;100241.47;;;22.58;48.64
33496;BME280;19836;55.812;37.560;2022-08-19T01:49:22;100240.06;;;22.53;48.98
33496;BME280;19836;55.812;37.560;2022-08-19T01:51:49;100241.34;;;22.47;49.08
33496;BME280;19836;55.812;37.560;2022-08-19T01:54:16;100236.19;;;22.43;49.15
33496;BME280;19836;55.812;37.560;2022-08-19T01:56:42;100239.38;;;22.37;49.29
33496;BME280;19836;55.812;37.560;2022-08-19T01:59:16;100237.03;;;22.31;49.57
33496;BME280;19836;55.812;37.560;2022-08-19T02:01:43;100234.66;;;22.26;49.63
33496;BME280;19836;55.812;37.560;2022-08-19T02:04:08;100238.56;;;22.22;49.80
33496;BME280;19836;55.812;37.560;2022-08-19T02:06:34;100233.53;;;22.16;50.11
33496;BME280;19836;55.812;37.560;2022-08-19T02:09:02;100232.78;;;22.14;50.04
33496;BME280;19836;55.812;37.560;2022-08-19T02:11:30;100230.72;;;22.18;49.93
33496;BME280;19836;55.812;37.560;2022-08-19T02:14:01;100235.06;;;22.20;50.05
33496;BME280;19836;55.812;37.560;2022-08-19T02:16:28;100231.38;;;22.21;50.03
33496;BME280;19836;55.812;37.560;2022-08-19T02:18:55;100225.69;;;22.24;50.02
33496;BME280;19836;55.812;37.560;2022-08-19T02:21:22;100227.34;;;22.27;49.81
33496;BME280;19836;55.812;37.560;2022-08-19T02:23:49;100231.16;;;22.24;49.70
33496;BME280;19836;55.812;37.560;2022-08-19T02:26:16;100228.63;;;22.21;50.02
33496;BME280;19836;55.812;37.560;2022-08-19T02:28:42;100240.53;;;22.20;49.94
33496;BME280;19836;55.812;37.560;2022-08-19T02:31:14;100258.47;;;22.24;50.07
33496;BME280;19836;55.812;37.560;2022-08-19T02:33:43;100253.66;;;22.28;50.00
33496;BME280;19836;55.812;37.560;2022-08-19T02:36:11;100257.03;;;22.31;49.91
33496;BME280;19836;55.812;37.560;2022-08-19T02:38:38;100265.88;;;22.35;50.02
33496;BME280;19836;55.812;37.560;2022-08-19T02:41:10;100260.00;;;22.41;49.80
33496;BME280;19836;55.812;37.560;2022-08-19T02:43:37;100266.19;;;22.44;49.69
33496;BME280;19836;55.812;37.560;2022-08-19T02:46:16;100267.69;;;22.48;49.46
33496;BME280;19836;55.812;37.560;2022-08-19T02:48:43;100263.44;;;22.44;49.63
33496;BME280;19836;55.812;37.560;2022-08-19T02:51:16;100265.19;;;22.45;49.48
33496;BME280;19836;55.812;37.560;2022-08-19T02:53:42;100258.84;;;22.45;49.36
33496;BME280;19836;55.812;37.560;2022-08-19T02:56:08;100267.69;;;22.48;49.39
33496;BME280;19836;55.812;37.560;2022-08-19T02:58:34;100267.91;;;22.45;49.26
33496;BME280;19836;55.812;37.560;2022-08-19T03:01:00;100263.22;;;22.47;49.28
33496;BME280;19836;55.812;37.560;2022-08-19T03:03:26;100265.75;;;22.50;49.22
33496;BME280;19836;55.812;37.560;2022-08-19T03:06:12;100271.50;;;22.58;49.14
33496;BME280;19836;55.812;37.560;2022-08-19T03:08:40;100277.97;;;22.57;49.20
33496;BME280;19836;55.812;37.560;2022-08-19T03:11:17;100264.31;;;22.57;49.10
33496;BME280;19836;55.812;37.560;2022-08-19T03:13:43;100272.06;;;22.63;49.10
33496;BME280;19836;55.812;37.560;2022-08-19T03:16:10;100269.22;;;22.65;49.01
33496;BME280;19836;55.812;37.560;2022-08-19T03:18:37;100274.69;;;22.65;48.94
33496;BME280;19836;55.812;37.560;2022-08-19T03:21:03;100273.06;;;22.62;48.82
33496;BME280;19836;55.812;37.560;2022-08-19T03:23:29;100280.50;;;22.60;48.84
33496;BME280;19836;55.812;37.560;2022-08-19T03:25:55;100286.81;;;22.61;48.85
33496;BME280;19836;55.812;37.560;2022-08-19T03:28:21;100273.06;;;22.62;49.03
33496;BME280;19836;55.812;37.560;2022-08-19T03:31:11;100278.53;;;22.62;49.01
33496;BME280;19836;55.812;37.560;2022-08-19T03:33:38;100274.78;;;22.63;48.97
33496;BME280;19836;55.812;37.560;2022-08-19T03:36:07;100280.16;;;22.65;48.90
33496;BME280;19836;55.812;37.560;2022-08-19T03:38:47;100268.38;;;22.64;49.09
33496;BME280;19836;55.812;37.560;2022-08-19T03:41:17;100278.53;;;22.62;49.05
33496;BME280;19836;55.812;37.560;2022-08-19T03:43:44;100269.34;;;22.63;49.16
33496;BME280;19836;55.812;37.560;2022-08-19T03:46:15;100269.78;;;22.70;49.22
33496;BME280;19836;55.812;37.560;2022-08-19T03:48:45;100268.38;;;22.77;49.12
33496;BME280;19836;55.812;37.560;2022-08-19T03:51:31;100279.97;;;22.80;49.21
33496;BME280;19836;55.812;37.560;2022-08-19T03:53:59;100281.91;;;22.78;49.21
33496;BME280;19836;55.812;37.560;2022-08-19T03:56:26;100277.97;;;22.82;49.46
33496;BME280;19836;55.812;37.560;2022-08-19T03:58:58;100273.41;;;22.83;49.40
33496;BME280;19836;55.812;37.560;2022-08-19T04:01:27;100271.66;;;22.82;49.44
33496;BME280;19836;55.812;37.560;2022-08-19T04:03:53;100269.22;;;22.77;49.57
33496;BME280;19836;55.812;37.560;2022-08-19T04:06:25;100278.22;;;22.79;49.62
33496;BME280;19836;55.812;37.560;2022-08-19T04:08:54;100272.94;;;22.76;49.69
33496;BME280;19836;55.812;37.560;2022-08-19T04:11:23;100276.69;;;22.75;49.60
33496;BME280;19836;55.812;37.560;2022-08-19T04:13:52;100274.94;;;22.74;49.85
33496;BME280;19836;55.812;37.560;2022-08-19T04:16:23;100285.97;;;22.73;49.68
33496;BME280;19836;55.812;37.560;2022-08-19T04:18:49;100278.97;;;22.69;49.41
33496;BME280;19836;55.812;37.560;2022-08-19T04:21:18;100285.88;;;22.74;49.67
33496;BME280;19836;55.812;37.560;2022-08-19T04:23:45;100279.50;;;22.86;49.70
33496;BME280;19836;55.812;37.560;2022-08-19T04:26:21;100279.06;;;22.92;49.46
33496;BME280;19836;55.812;37.560;2022-08-19T04:28:47;100287.06;;;22.95;49.24
33496;BME280;19836;55.812;37.560;2022-08-19T04:31:30;100279.41;;;23.00;49.24
33496;BME280;19836;55.812;37.560;2022-08-19T04:33:58;100287.16;;;23.06;49.23
33496;BME280;19836;55.812;37.560;2022-08-19T04:36:27;100289.63;;;23.09;49.12
33496;BME280;19836;55.812;37.560;2022-08-19T04:38:55;100295.91;;;23.11;49.02
33496;BME280;19836;55.812;37.560;2022-08-19T04:41:22;100304.84;;;23.13;48.59
33496;BME280;19836;55.812;37.560;2022-08-19T04:44:06;100304.22;;;23.22;48.88
33496;BME280;19836;55.812;37.560;2022-08-19T04:46:33;100289.09;;;23.29;48.77
33496;BME280;19836;55.812;37.560;2022-08-19T04:49:00;100296.09;;;23.33;48.72
33496;BME280;19836;55.812;37.560;2022-08-19T04:51:27;100300.38;;;23.37;48.25
33496;BME280;19836;55.812;37.560;2022-08-19T04:53:54;100293.34;;;23.46;48.44
33496;BME280;19836;55.812;37.560;2022-08-19T04:56:20;100295.28;;;23.56;48.37
33496;BME280;19836;55.812;37.560;2022-08-19T04:58:49;100303.91;;;23.63;48.09
33496;BME280;19836;55.812;37.560;2022-08-19T05:01:19;100297.44;;;23.64;47.96
33496;BME280;19836;55.812;37.560;2022-08-19T05:03:46;100302.03;;;23.63;47.99
33496;BME280;19836;55.812;37.560;2022-08-19T05:06:15;100302.81;;;23.65;47.91
33496;BME280;19836;55.812;37.560;2022-08-19T05:08:42;100306.19;;;23.69;48.01
33496;BME280;19836;55.812;37.560;2022-08-19T05:11:14;100307.34;;;23.77;47.99
33496;BME280;19836;55.812;37.560;2022-08-19T05:13:40;100297.47;;;23.87;47.92
33496;BME280;19836;55.812;37.560;2022-08-19T05:16:06;100303.13;;;23.97;48.12
33496;BME280;19836;55.812;37.560;2022-08-19T05:18:32;100291.59;;;24.04;47.98
33496;BME280;19836;55.812;37.560;2022-08-19T05:21:18;100298.47;;;24.10;47.77
33496;BME280;19836;55.812;37.560;2022-08-19T05:24:04;100293.41;;;24.16;47.83
33496;BME280;19836;55.812;37.560;2022-08-19T05:26:34;100294.19;;;24.29;47.58
33496;BME280;19836;55.812;37.560;2022-08-19T05:29:00;100282.88;;;24.23;47.22
33496;BME280;19836;55.812;37.560;2022-08-19T05:31:26;100291.00;;;24.12;47.18
33496;BME280;19836;55.812;37.560;2022-08-19T05:33:52;100284.44;;;24.14;47.37
33496;BME280;19836;55.812;37.560;2022-08-19T05:36:17;100294.16;;;24.18;47.34
33496;BME280;19836;55.812;37.560;2022-08-19T05:38:54;100301.69;;;24.27;47.42
33496;BME280;19836;55.812;37.560;2022-08-19T05:41:21;100288.00;;;24.38;47.18
33496;BME280;19836;55.812;37.560;2022-08-19T05:43:50;100286.78;;;24.42;47.02
33496;BME280;19836;55.812;37.560;2022-08-19T05:46:18;100291.66;;;24.50;46.91
33496;BME280;19836;55.812;37.560;2022-08-19T05:48:44;100291.94;;;24.58;46.82
33496;BME280;19836;55.812;37.560;2022-08-19T05:51:10;100301.47;;;24.65;46.84
33496;BME280;19836;55.812;37.560;2022-08-19T05:53:37;100303.09;;;24.67;46.71
33496;BME280;19836;55.812;37.560;2022-08-19T05:56:07;100300.75;;;24.74;46.53
33496;BME280;19836;55.812;37.560;2022-08-19T05:58:34;100299.13;;;24.82;46.45
33496;BME280;19836;55.812;37.560;2022-08-19T06:01:01;100302.38;;;24.87;46.30
33496;BME280;19836;55.812;37.560;2022-08-19T06:03:35;100303.13;;;24.89;46.03
33496;BME280;19836;55.812;37.560;2022-08-19T06:06:04;100296.41;;;24.93;46.19
33496;BME280;19836;55.812;37.560;2022-08-19T06:08:31;100289.44;;;25.00;46.19
33496;BME280;19836;55.812;37.560;2022-08-19T06:10:57;100291.69;;;25.06;46.22
33496;BME280;19836;55.812;37.560;2022-08-19T06:13:22;100295.03;;;25.10;46.09
33496;BME280;19836;55.812;37.560;2022-08-19T06:15:49;100293.81;;;25.14;46.08
33496;BME280;19836;55.812;37.560;2022-08-19T06:18:15;100300.78;;;25.18;46.23
33496;BME280;19836;55.812;37.560;2022-08-19T06:20:42;100297.66;;;25.22;45.82
33496;BME280;19836;55.812;37.560;2022-08-19T06:23:08;100304.69;;;25.26;45.66
33496;BME280;19836;55.812;37.560;2022-08-19T06:25:35;100302.44;;;25.31;45.67
33496;BME280;19836;55.812;37.560;2022-08-19T06:28:01;100313.81;;;25.38;45.67
33496;BME280;19836;55.812;37.560;2022-08-19T06:30:27;100314.16;;;25.44;45.43
33496;BME280;19836;55.812;37.560;2022-08-19T06:32:53;100320.50;;;25.56;45.27
33496;BME280;19836;55.812;37.560;2022-08-19T06:35:19;100311.41;;;25.66;44.98
33496;BME280;19836;55.812;37.560;2022-08-19T06:37:45;100310.13;;;25.70;44.81
33496;BME280;19836;55.812;37.560;2022-08-19T06:40:11;100311.63;;;25.74;44.42
33496;BME280;19836;55.812;37.560;2022-08-19T06:42:38;100311.22;;;25.90;44.55
33496;BME280;19836;55.812;37.560;2022-08-19T06:45:05;100303.69;;;26.03;44.25
33496;BME280;19836;55.812;37.560;2022-08-19T06:47:34;100303.16;;;26.20;44.05
33496;BME280;19836;55.812;37.560;2022-08-19T06:50:00;100299.22;;;26.33;44.16
33496;BME280;19836;55.812;37.560;2022-08-19T06:52:31;100297.84;;;26.39;43.72
33496;BME280;19836;55.812;37.560;2022-08-19T06:54:57;100289.44;;;26.40;43.52
33496;BME280;19836;55.812;37.560;2022-08-19T06:57:24;100297.44;;;26.43;43.53
33496;BME280;19836;55.812;37.560;2022-08-19T06:59:51;100296.94;;;26.38;43.46
33496;BME280;19836;55.812;37.560;2022-08-19T07:02:17;100295.09;;;26.39;43.50
33496;BME280;19836;55.812;37.560;2022-08-19T07:04:43;100298.44;;;26.42;43.53
33496;BME280;19836;55.812;37.560;2022-08-19T07:07:11;100303.66;;;26.45;43.49
33496;BME280;19836;55.812;37.560;2022-08-19T07:09:40;100302.81;;;26.45;43.42
33496;BME280;19836;55.812;37.560;2022-08-19T07:12:10;100298.91;;;26.47;43.45
33496;BME280;19836;55.812;37.560;2022-08-19T07:14:37;100299.66;;;26.49;43.48
33496;BME280;19836;55.812;37.560;2022-08-19T07:17:06;100295.63;;;26.53;43.33
33496;BME280;19836;55.812;37.560;2022-08-19T07:19:33;100293.88;;;26.52;43.29
33496;BME280;19836;55.812;37.560;2022-08-19T07:22:02;100294.16;;;26.49;43.21
33496;BME280;19836;55.812;37.560;2022-08-19T07:24:28;100301.00;;;26.55;43.55
33496;BME280;19836;55.812;37.560;2022-08-19T07:26:56;100290.63;;;26.58;43.26
33496;BME280;19836;55.812;37.560;2022-08-19T07:29:31;100307.59;;;26.63;43.20
33496;BME280;19836;55.812;37.560;2022-08-19T07:32:00;100301.84;;;26.66;42.99
33496;BME280;19836;55.812;37.560;2022-08-19T07:34:28;100308.81;;;26.70;42.35
33496;BME280;19836;55.812;37.560;2022-08-19T07:36:54;100308.88;;;26.80;42.24
33496;BME280;19836;55.812;37.560;2022-08-19T07:39:24;100298.81;;;26.90;42.01
33496;BME280;19836;55.812;37.560;2022-08-19T07:41:51;100305.97;;;27.02;41.72
33496;BME280;19836;55.812;37.560;2022-08-19T07:44:18;100303.44;;;27.10;41.32
33496;BME280;19836;55.812;37.560;2022-08-19T07:46:48;100308.75;;;27.22;40.96
33496;BME280;19836;55.812;37.560;2022-08-19T07:49:16;100310.47;;;27.53;40.65
33496;BME280;19836;55.812;37.560;2022-08-19T07:52:11;100307.97;;;27.80;40.13
33496;BME280;19836;55.812;37.560;2022-08-19T07:54:38;100310.63;;;28.01;39.36
33496;BME280;19836;55.812;37.560;2022-08-19T07:57:04;100313.38;;;28.10;38.76
33496;BME280;19836;55.812;37.560;2022-08-19T07:59:31;100299.03;;;28.35;38.18
33496;BME280;19836;55.812;37.560;2022-08-19T08:01:57;100311.25;;;28.61;37.63
33496;BME280;19836;55.812;37.560;2022-08-19T08:04:26;100307.47;;;28.81;36.99
33496;BME280;19836;55.812;37.560;2022-08-19T08:07:24;100310.09;;;28.92;36.62
33496;BME280;19836;55.812;37.560;2022-08-19T08:10:08;100306.59;;;28.90;36.53
33496;BME280;19836;55.812;37.560;2022-08-19T08:12:38;100331.88;;;28.86;36.34
33496;BME280;19836;55.812;37.560;2022-08-19T08:15:10;100326.06;;;28.60;36.29
33496;BME280;19836;55.812;37.560;2022-08-19T08:17:37;100318.22;;;28.46;36.51
33496;BME280;19836;55.812;37.560;2022-08-19T08:20:06;100318.81;;;28.40;36.71
33496;BME280;19836;55.812;37.560;2022-08-19T08:22:32;100320.28;;;28.44;36.76
33496;BME280;19836;55.812;37.560;2022-08-19T08:25:20;100340.59;;;28.43;36.82
33496;BME280;19836;55.812;37.560;2022-08-19T08:27:46;100332.75;;;28.39;37.01
33496;BME280;19836;55.812;37.560;2022-08-19T08:30:22;100335.91;;;28.34;37.03
33496;BME280;19836;55.812;37.560;2022-08-19T08:32:49;100337.34;;;28.29;37.27
33496;BME280;19836;55.812;37.560;2022-08-19T08:35:18;100342.41;;;28.24;37.33
33496;BME280;19836;55.812;37.560;2022-08-19T08:37:45;100351.13;;;28.19;37.36
33496;BME280;19836;55.812;37.560;2022-08-19T08:40:27;100349.84;;;28.23;37.60
33496;BME280;19836;55.812;37.560;2022-08-19T08:43:03;100341.44;;;28.34;37.63
33496;BME280;19836;55.812;37.560;2022-08-19T08:45:30;100336.56;;;28.47;37.32
33496;BME280;19836;55.812;37.560;2022-08-19T08:48:02;100336.53;;;28.66;37.16
33496;BME280;19836;55.812;37.560;2022-08-19T08:50:34;100326.63;;;28.83;37.08
33496;BME280;19836;55.812;37.560;2022-08-19T08:53:05;100329.25;;;29.03;36.98
33496;BME280;19836;55.812;37.560;2022-08-19T08:55:32;100326.72;;;29.29;36.61
33496;BME280;19836;55.812;37.560;2022-08-19T08:59:18;100326.66;;;29.57;36.34
33496;BME280;19836;55.812;37.560;2022-08-19T09:01:25;100329.91;;;29.70;35.90
33496;BME280;19836;55.812;37.560;2022-08-19T09:03:51;100327.28;;;29.78;35.68
33496;BME280;19836;55.812;37.560;2022-08-19T09:14:34;100320.34;;;30.89;33.97
33496;BME280;19836;55.812;37.560;2022-08-19T09:17:01;100318.66;;;31.39;32.92
33496;BME280;19836;55.812;37.560;2022-08-19T09:19:48;100322.91;;;31.51;32.59
33496;BME280;19836;55.812;37.560;2022-08-19T09:22:14;100329.75;;;31.73;32.44
33496;BME280;19836;55.812;37.560;2022-08-19T09:24:40;100317.00;;;32.21;31.83
33496;BME280;19836;55.812;37.560;2022-08-19T09:27:06;100326.63;;;32.67;30.93
33496;BME280;19836;55.812;37.560;2022-08-19T09:29:32;100322.16;;;32.82;30.88
33496;BME280;19836;55.812;37.560;2022-08-19T09:31:57;100317.44;;;32.66;30.35
33496;BME280;19836;55.812;37.560;2022-08-19T09:34:23;100335.09;;;32.41;30.64
33496;BME280;19836;55.812;37.560;2022-08-19T09:36:50;100336.84;;;32.01;31.04
33496;BME280;19836;55.812;37.560;2022-08-19T09:39:18;100340.72;;;31.49;31.38
33496;BME280;19836;55.812;37.560;2022-08-19T09:41:44;100342.94;;;31.19;31.73
33496;BME280;19836;55.812;37.560;2022-08-19T09:44:10;100337.66;;;31.08;31.17
33496;BME280;19836;55.812;37.560;2022-08-19T09:46:38;100346.66;;;31.54;30.33
33496;BME280;19836;55.812;37.560;2022-08-19T09:49:04;100341.00;;;32.46;28.82
33496;BME280;19836;55.812;37.560;2022-08-19T09:51:32;100343.28;;;33.47;27.77
33496;BME280;19836;55.812;37.560;2022-08-19T09:54:00;100348.75;;;34.25;27.17
33496;BME280;19836;55.812;37.560;2022-08-19T09:56:27;100340.97;;;34.74;25.76
33496;BME280;19836;55.812;37.560;2022-08-19T09:58:53;100348.84;;;35.38;24.84
33496;BME280;19836;55.812;37.560;2022-08-19T10:01:22;100344.97;;;35.76;24.82
33496;BME280;19836;55.812;37.560;2022-08-19T10:03:53;100351.41;;;35.91;24.22
33496;BME280;19836;55.812;37.560;2022-08-19T10:06:21;100352.03;;;36.07;23.87
33496;BME280;19836;55.812;37.560;2022-08-19T10:08:49;100348.13;;;36.31;23.55
33496;BME280;19836;55.812;37.560;2022-08-19T10:11:15;100344.34;;;36.38;23.35
33496;BME280;19836;55.812;37.560;2022-08-19T10:13:43;100349.44;;;36.35;23.08
33496;BME280;19836;55.812;37.560;2022-08-19T10:16:16;100353.97;;;36.36;23.22
33496;BME280;19836;55.812;37.560;2022-08-19T10:18:43;100345.75;;;36.49;23.23
33496;BME280;19836;55.812;37.560;2022-08-19T10:21:24;100348.00;;;36.60;22.65
33496;BME280;19836;55.812;37.560;2022-08-19T10:23:53;100357.09;;;36.47;22.92
33496;BME280;19836;55.812;37.560;2022-08-19T10:26:23;100354.72;;;36.44;22.71
33496;BME280;19836;55.812;37.560;2022-08-19T10:28:50;100348.78;;;36.33;22.79
33496;BME280;19836;55.812;37.560;2022-08-19T10:31:19;100354.94;;;36.14;22.84
33496;BME280;19836;55.812;37.560;2022-08-19T10:33:47;100360.69;;;36.12;23.13
33496;BME280;19836;55.812;37.560;2022-08-19T10:36:16;100358.16;;;35.82;23.44
33496;BME280;19836;55.812;37.560;2022-08-19T10:38:44;100354.78;;;35.72;23.09
33496;BME280;19836;55.812;37.560;2022-08-19T10:41:23;100366.56;;;36.17;22.32
33496;BME280;19836;55.812;37.560;2022-08-19T10:43:57;100352.19;;;36.85;21.61
33496;BME280;19836;55.812;37.560;2022-08-19T10:46:26;100350.50;;;37.32;20.77
33496;BME280;19836;55.812;37.560;2022-08-19T10:48:53;100356.06;;;38.15;20.28
33496;BME280;19836;55.812;37.560;2022-08-19T10:51:20;100359.03;;;38.41;19.58
33496;BME280;19836;55.812;37.560;2022-08-19T10:54:05;100355.25;;;38.68;19.28
33496;BME280;19836;55.812;37.560;2022-08-19T10:56:32;100354.81;;;38.71;19.07
33496;BME280;19836;55.812;37.560;2022-08-19T10:59:23;100362.97;;;38.66;18.44
33496;BME280;19836;55.812;37.560;2022-08-19T11:01:50;100357.25;;;38.40;17.95
33496;BME280;19836;55.812;37.560;2022-08-19T11:04:18;100362.75;;;38.14;17.32
33496;BME280;19836;55.812;37.560;2022-08-19T11:06:46;100361.59;;;38.36;16.91
33496;BME280;19836;55.812;37.560;2022-08-19T11:09:14;100368.91;;;38.37;16.75
33496;BME280;19836;55.812;37.560;2022-08-19T11:11:41;100371.66;;;37.96;15.81
33496;BME280;19836;55.812;37.560;2022-08-19T11:14:09;100361.16;;;37.43;16.07
33496;BME280;19836;55.812;37.560;2022-08-19T11:16:36;100351.13;;;37.28;16.15
33496;BME280;19836;55.812;37.560;2022-08-19T11:19:05;100354.06;;;37.20;15.96
33496;BME280;19836;55.812;37.560;2022-08-19T11:21:35;100336.88;;;37.02;16.11
33496;BME280;19836;55.812;37.560;2022-08-19T11:24:08;100348.84;;;36.75;16.28
33496;BME280;19836;55.812;37.560;2022-08-19T11:26:35;100354.72;;;36.44;16.44
33496;BME280;19836;55.812;37.560;2022-08-19T11:29:03;100354.97;;;36.28;16.86
33496;BME280;19836;55.812;37.560;2022-08-19T11:31:32;100350.03;;;36.01;16.86
33496;BME280;19836;55.812;37.560;2022-08-19T11:34:00;100353.84;;;35.71;17.06
33496;BME280;19836;55.812;37.560;2022-08-19T11:36:28;100351.06;;;35.57;17.45
33496;BME280;19836;55.812;37.560;2022-08-19T11:38:54;100341.75;;;35.64;17.72
33496;BME280;19836;55.812;37.560;2022-08-19T11:41:22;100347.75;;;35.76;17.61
33496;BME280;19836;55.812;37.560;2022-08-19T11:43:52;100351.69;;;35.96;17.95
33496;BME280;19836;55.812;37.560;2022-08-19T11:46:22;100349.94;;;35.95;18.08
33496;BME280;19836;55.812;37.560;2022-08-19T11:48:48;100350.78;;;36.10;18.25
33496;BME280;19836;55.812;37.560;2022-08-19T11:51:32;100346.22;;;36.67;17.90
33496;BME280;19836;55.812;37.560;2022-08-19T11:53:59;100352.13;;;37.69;17.17
33496;BME280;19836;55.812;37.560;2022-08-19T11:56:26;100345.25;;;38.46;16.32
33496;BME280;19836;55.812;37.560;2022-08-19T11:58:52;100345.81;;;38.35;16.42
33496;BME280;19836;55.812;37.560;2022-08-19T12:01:20;100358.88;;;38.15;16.81
33496;BME280;19836;55.812;37.560;2022-08-19T12:03:49;100340.34;;;38.14;16.79
33496;BME280;19836;55.812;37.560;2022-08-19T12:06:18;100344.19;;;38.06;17.10
33496;BME280;19836;55.812;37.560;2022-08-19T12:08:45;100343.88;;;37.95;17.26
33496;BME280;19836;55.812;37.560;2022-08-19T12:11:13;100346.13;;;37.72;17.52
33496;BME280;19836;55.812;37.560;2022-08-19T12:13:40;100341.06;;;36.70;18.01
33496;BME280;19836;55.812;37.560;2022-08-19T12:16:15;100351.09;;;36.29;18.82
33496;BME280;19836;55.812;37.560;2022-08-19T12:18:42;100348.88;;;36.25;18.85
33496;BME280;19836;55.812;37.560;2022-08-19T12:21:20;100348.13;;;36.66;18.95
33496;BME280;19836;55.812;37.560;2022-08-19T12:23:49;100355.56;;;37.01;18.65
33496;BME280;19836;55.812;37.560;2022-08-19T12:26:15;100343.31;;;37.02;19.00
33496;BME280;19836;55.812;37.560;2022-08-19T12:28:42;100335.47;;;36.91;19.25
33496;BME280;19836;55.812;37.560;2022-08-19T12:31:08;100328.88;;;36.99;19.17
33496;BME280;19836;55.812;37.560;2022-08-19T12:33:38;100332.75;;;37.19;19.11
33496;BME280;19836;55.812;37.560;2022-08-19T12:36:06;100329.16;;;37.25;19.23
33496;BME280;19836;55.812;37.560;2022-08-19T12:38:33;100323.03;;;37.15;19.48
33496;BME280;19836;55.812;37.560;2022-08-19T12:41:00;100325.09;;;36.85;19.67
33496;BME280;19836;55.812;37.560;2022-08-19T12:43:26;100335.91;;;36.88;19.91
33496;BME280;19836;55.812;37.560;2022-08-19T12:45:52;100337.78;;;37.30;19.79
33496;BME280;19836;55.812;37.560;2022-08-19T12:48:18;100337.16;;;37.83;19.32
33496;BME280;19836;55.812;37.560;2022-08-19T12:50:45;100334.97;;;37.78;19.45
33496;BME280;19836;55.812;37.560;2022-08-19T12:53:12;100324.50;;;37.59;19.39
33496;BME280;19836;55.812;37.560;2022-08-19T12:55:38;100328.00;;;37.40;19.58
33496;BME280;19836;55.812;37.560;2022-08-19T12:58:04;100320.25;;;36.94;19.85